This is the latest recevied weather packets stored in our database for station/object N0SWP-3. If no packets are shown the sender has not sent any weather packets the latest 10 day(s).
| Time | Temp. | Humidity | Pressure | Rain* | Wind** | Luminosity | Snow |
|---|---|---|---|---|---|---|---|
| 1777932903 | 29.44° C | 44% | 1002 hPa | 0 mm | - | - | - |
| 1777930744 | 29.44° C | 43% | 1002.2 hPa | 0 mm | - | - | - |
| 1777929663 | 28.89° C | 44% | 1002.3 hPa | 0 mm | - | - | - |
| 1777928943 | 29.44° C | 44% | 1002.3 hPa | 0 mm | - | - | - |
| 1777927503 | 29.44° C | 43% | 1002.5 hPa | 0 mm | - | - | - |
| 1777927143 | 29.44° C | 42% | 1002.6 hPa | 0 mm | - | - | - |
| 1777926423 | 29.44° C | 42% | 1002.8 hPa | 0 mm | - | - | - |
| 1777926063 | 28.89° C | 42% | 1002.8 hPa | 0 mm | - | - | - |
| 1777925523 | 29.44° C | 40% | 1002.9 hPa | 0 mm | - | - | - |
| 1777925477 | 30° C | 40% | 1002.9 hPa | 0 mm | - | - | - |
| 1777920843 | 28.33° C | 43% | 1003.6 hPa | 0 mm | - | - | - |
| 1777919043 | 27.78° C | 42% | 1003.8 hPa | 0 mm | - | - | - |
| 1777916524 | 27.22° C | 44% | 1004.1 hPa | 0 mm | - | - | - |
| 1777915984 | 26.67° C | 44% | 1004.1 hPa | 0 mm | - | - | - |
| 1777914364 | 25.56° C | 46% | 1004.3 hPa | 0 mm | - | - | - |
| 1777909863 | 23.89° C | 50% | 1004.5 hPa | 0 mm | - | - | - |
| 1777909683 | 23.33° C | 50% | 1004.4 hPa | 0 mm | - | - | - |
| 1777909143 | 23.33° C | 52% | 1004.6 hPa | 0 mm | - | - | - |
| 1777908603 | 22.78° C | 52% | 1004.7 hPa | 0 mm | - | - | - |
| 1777906803 | 21.11° C | 55% | 1004.7 hPa | 0 mm | - | - | - |
| 1777906623 | 21.11° C | 55% | 1004.7 hPa | 0 mm | - | - | - |
| 1777903924 | 20° C | 55% | 1004.5 hPa | 0 mm | - | - | - |
| 1777901943 | 20° C | 55% | 1004.5 hPa | 0 mm | - | - | - |
| 1777898343 | 18.33° C | 57% | 1004.7 hPa | 0 mm | - | - | - |
| 1777897264 | 18.33° C | 57% | 1004.6 hPa | 0 mm | - | - | - |
* Rain latest hour (hover to see other rain measurements)
** Current wind speed in m/s (hover to see current wind gust speed)